Terminal Aerodrome Forecast
Issued by NWS Goodland, KS

Home | Current Version | Previous Version | Text Only | Print | Product List | Glossary On
Versions: 1 2 3 4 5 6 7 8 9 10 11 12 13 14 15 16 17 18 19 20 21 22 23 24 25 26 27 28 29 30
000
FTUS43 KGLD 240225 AAB
TAFGLD
TAF AMD
KGLD 240225Z 2402/2424 VRB05KT P6SM -SHRA BKN060
      TEMPO 2402/2404 3SM -SHRA BR BKN020
     FM240400 15007KT 1 1/2SM -DZ BR OVC003
     FM241400 15010G16KT 3SM BR OVC005
     FM241900 16010G16KT P6SM SCT015 BKN035=

USA.gov is the U.S. government's official web portal to all federal, state and local government web resources and services.